Time;durP1;ratioP1;P1;durP2;ratioP2;P2;SDS_P1;SDS_P2;PMS_P1;PMS_P2;Temp;Humidity;BMP_temperature;BMP_pressure;BME280_temperature;BME280_humidity;BME280_pressure;Samples;Min_cycle;Max_cycle;Signal;HPM_P1;HPM_P2
2022/03/27 00:01:24;;;;;;;10.88;3.53;;;8.00;99.90;;;;;;5061383;28;20044;-62
2022/03/27 00:03:49;;;;;;;10.10;3.25;;;7.90;99.90;;;;;;5057192;28;20056;-62
2022/03/27 00:06:15;;;;;;;10.95;3.83;;;7.70;99.90;;;;;;5055847;28;20036;-62
2022/03/27 00:08:40;;;;;;;14.10;4.57;;;7.60;99.90;;;;;;5035123;28;20103;-62
2022/03/27 00:11:24;;;;;;;8.45;3.13;;;7.80;99.90;;;;;;5058738;28;20107;-62
2022/03/27 00:13:51;;;;;;;12.18;3.75;;;7.80;99.90;;;;;;5054280;28;20028;-62
2022/03/27 00:16:17;;;;;;;14.27;3.95;;;7.70;99.90;;;;;;5052276;28;20040;-62
2022/03/27 00:18:42;;;;;;;8.05;3.53;;;7.60;99.90;;;;;;5059069;28;20024;-62
2022/03/27 00:21:10;;;;;;;12.82;4.40;;;7.60;99.90;;;;;;5059335;28;20020;-62
2022/03/27 00:23:36;;;;;;;8.07;3.22;;;7.60;99.90;;;;;;5061144;28;20063;-62
2022/03/27 00:26:03;;;;;;;13.20;3.88;;;7.50;99.90;;;;;;5042633;28;20715;-62
2022/03/27 00:28:32;;;;;;;8.43;3.40;;;7.40;99.90;;;;;;5041589;28;20061;-62
2022/03/27 00:31:04;;;;;;;10.50;3.63;;;7.40;99.90;;;;;;5058766;28;20120;-61
2022/03/27 00:33:30;;;;;;;10.05;3.30;;;7.30;99.90;;;;;;5040346;28;20032;-62
2022/03/27 00:35:55;;;;;;;9.13;3.90;;;7.20;99.90;;;;;;5057434;28;20213;-62
2022/03/27 00:38:22;;;;;;;10.02;3.28;;;7.30;99.90;;;;;;5053991;28;20051;-62
2022/03/27 00:40:49;;;;;;;11.20;3.42;;;7.30;99.90;;;;;;5058553;28;20020;-62
2022/03/27 00:43:16;;;;;;;13.98;4.10;;;7.20;99.90;;;;;;5037120;28;20026;-62
2022/03/27 00:45:42;;;;;;;10.43;3.90;;;7.10;99.90;;;;;;5051882;28;20038;-62
2022/03/27 00:48:07;;;;;;;7.70;3.22;;;7.00;99.90;;;;;;5053867;28;20029;-62
2022/03/27 00:50:33;;;;;;;10.18;2.97;;;7.00;99.90;;;;;;5059587;28;20085;-62
2022/03/27 00:52:59;;;;;;;12.35;3.50;;;7.00;99.90;;;;;;5055538;28;20346;-62
2022/03/27 00:55:25;;;;;;;11.48;4.35;;;7.00;99.90;;;;;;5054762;28;20024;-62
2022/03/27 00:57:51;;;;;;;10.65;3.58;;;7.00;99.90;;;;;;5057247;28;20436;-62
2022/03/27 01:00:45;;;;;;;12.60;3.58;;;7.00;99.90;;;;;;5051501;28;20021;-62
2022/03/27 01:03:16;;;;;;;10.88;2.92;;;6.90;99.90;;;;;;5056377;28;20440;-62
2022/03/27 01:05:44;;;;;;;8.60;3.33;;;7.00;99.90;;;;;;5053536;28;20043;-62
2022/03/27 01:08:12;;;;;;;10.18;4.10;;;7.10;99.90;;;;;;5052911;28;20128;-62
2022/03/27 01:10:38;;;;;;;8.18;3.60;;;7.00;99.90;;;;;;5056162;28;20091;-62
2022/03/27 01:13:15;;;;;;;13.43;3.88;;;6.90;99.90;;;;;;5054362;28;20527;-62
2022/03/27 01:15:45;;;;;;;9.65;3.53;;;6.90;99.90;;;;;;5058958;28;20032;-62
2022/03/27 01:18:12;;;;;;;8.25;3.28;;;6.90;99.90;;;;;;5061396;28;20024;-61
2022/03/27 01:20:40;;;;;;;7.80;2.92;;;6.90;99.90;;;;;;5056736;28;20031;-61
2022/03/27 01:23:11;;;;;;;14.63;4.30;;;6.90;99.90;;;;;;5058336;28;20426;-61
2022/03/27 01:25:39;;;;;;;7.28;2.80;;;6.90;99.90;;;;;;5051702;28;20052;-61
2022/03/27 01:28:06;;;;;;;9.38;4.35;;;6.80;99.90;;;;;;5053397;28;20140;-62
2022/03/27 01:30:32;;;;;;;7.40;3.10;;;6.90;99.90;;;;;;5053801;28;20029;-62
2022/03/27 01:32:58;;;;;;;9.50;3.05;;;6.80;99.90;;;;;;5056944;28;20028;-61
2022/03/27 01:35:24;;;;;;;5.70;2.42;;;6.80;99.90;;;;;;5055016;28;20029;-61
2022/03/27 01:37:50;;;;;;;10.65;3.58;;;6.70;99.90;;;;;;5048403;28;20047;-61
2022/03/27 01:40:17;;;;;;;10.00;2.95;;;6.70;99.90;;;;;;5056608;28;20032;-61
2022/03/27 01:42:43;;;;;;;9.77;3.55;;;6.70;99.90;;;;;;5055541;28;20025;-61
2022/03/27 01:45:09;;;;;;;9.98;3.55;;;6.60;99.90;;;;;;5051775;28;20379;-61
2022/03/27 01:47:36;;;;;;;9.10;3.05;;;6.60;99.90;;;;;;5062023;28;20032;-61
2022/03/27 01:50:03;;;;;;;8.63;2.83;;;6.60;99.90;;;;;;5053723;28;20029;-61
2022/03/27 01:52:29;;;;;;;10.48;3.83;;;6.70;99.90;;;;;;5055033;28;20032;-61
2022/03/27 01:54:54;;;;;;;10.55;3.38;;;6.70;99.90;;;;;;5052098;28;20032;-61
2022/03/27 01:57:20;;;;;;;9.00;2.70;;;6.50;99.90;;;;;;5062082;28;20033;-61
2022/03/27 01:59:46;;;;;;;8.52;2.65;;;6.50;99.90;;;;;;5053371;28;20071;-61
2022/03/27 02:02:11;;;;;;;11.45;3.92;;;6.50;99.90;;;;;;5052860;28;20112;-61
2022/03/27 02:04:37;;;;;;;6.85;2.65;;;6.40;99.90;;;;;;5043388;28;20491;-61
2022/03/27 02:07:03;;;;;;;10.85;3.38;;;6.50;99.90;;;;;;5052132;28;20399;-61
2022/03/27 02:09:29;;;;;;;9.95;3.33;;;6.50;99.90;;;;;;5033897;28;20025;-62
2022/03/27 02:11:55;;;;;;;10.55;3.08;;;6.50;99.90;;;;;;5051185;28;20036;-61
2022/03/27 02:14:21;;;;;;;7.22;3.13;;;6.50;99.90;;;;;;5056070;28;20638;-62
2022/03/27 02:16:46;;;;;;;8.98;3.35;;;6.50;99.90;;;;;;5049832;28;20477;-61
2022/03/27 02:19:12;;;;;;;11.48;3.72;;;6.40;99.90;;;;;;5060153;28;20020;-61
2022/03/27 02:21:39;;;;;;;9.15;2.95;;;6.30;99.90;;;;;;5060580;28;20388;-61
2022/03/27 02:24:06;;;;;;;9.52;3.30;;;6.40;99.90;;;;;;5056041;28;20197;-61
2022/03/27 02:26:32;;;;;;;8.93;2.75;;;6.40;99.90;;;;;;5056475;28;20504;-61
2022/03/27 02:28:58;;;;;;;9.13;3.03;;;6.40;99.90;;;;;;5055687;28;20329;-61
2022/03/27 02:31:24;;;;;;;6.97;2.63;;;6.40;99.90;;;;;;5055184;28;20025;-61
2022/03/27 02:33:49;;;;;;;6.30;2.80;;;6.40;99.90;;;;;;5060035;28;20609;-61
2022/03/27 02:36:16;;;;;;;7.00;2.40;;;6.40;99.90;;;;;;5059556;28;20029;-61
2022/03/27 02:38:42;;;;;;;9.57;3.25;;;6.30;99.90;;;;;;5056979;28;20036;-61
2022/03/27 02:41:08;;;;;;;8.45;3.25;;;6.30;99.90;;;;;;5061274;28;20076;-61
2022/03/27 02:43:38;;;;;;;9.70;3.55;;;6.30;99.90;;;;;;5056964;28;20057;-62
2022/03/27 02:46:05;;;;;;;6.93;2.85;;;6.30;99.90;;;;;;5062416;28;20017;-61
2022/03/27 02:48:31;;;;;;;8.80;3.55;;;6.10;99.90;;;;;;5056785;28;20028;-62
2022/03/27 02:50:57;;;;;;;12.23;3.80;;;6.20;99.90;;;;;;5040809;28;20028;-62
2022/03/27 02:53:23;;;;;;;8.25;3.00;;;6.10;99.90;;;;;;5056343;28;20134;-61
2022/03/27 02:55:49;;;;;;;9.18;3.72;;;6.10;99.90;;;;;;5059742;28;20027;-61
2022/03/27 02:58:14;;;;;;;9.48;3.15;;;6.10;99.90;;;;;;5057926;28;20041;-61
2022/03/27 03:00:43;;;;;;;7.72;3.13;;;6.10;99.90;;;;;;5057299;28;20540;-62
2022/03/27 03:03:10;;;;;;;10.13;3.45;;;6.30;99.90;;;;;;5052795;28;20379;-61
2022/03/27 03:05:39;;;;;;;9.90;4.07;;;6.60;99.90;;;;;;5057090;28;20092;-61
2022/03/27 03:08:06;;;;;;;12.90;3.15;;;6.90;99.90;;;;;;5055014;28;20037;-61
2022/03/27 03:10:32;;;;;;;10.07;3.75;;;6.90;99.90;;;;;;5056821;28;20575;-61
2022/03/27 03:12:58;;;;;;;11.13;4.20;;;7.00;99.90;;;;;;5058280;28;20055;-61
2022/03/27 03:15:24;;;;;;;9.15;2.95;;;7.10;99.90;;;;;;5037560;28;20484;-61
2022/03/27 03:17:50;;;;;;;9.27;3.90;;;7.20;99.90;;;;;;5064016;28;20104;-61
2022/03/27 03:20:16;;;;;;;9.52;4.10;;;7.30;99.90;;;;;;5044217;28;20024;-61
2022/03/27 03:22:42;;;;;;;19.52;4.43;;;7.50;99.90;;;;;;5057843;28;20025;-61
2022/03/27 03:25:09;;;;;;;11.40;3.97;;;7.60;99.90;;;;;;5044580;28;20052;-61
2022/03/27 03:27:36;;;;;;;12.65;4.40;;;7.60;99.90;;;;;;5061510;28;20029;-61
2022/03/27 03:30:04;;;;;;;10.05;4.20;;;7.60;99.90;;;;;;5043971;28;20166;-61
2022/03/27 03:32:29;;;;;;;9.20;3.78;;;7.50;99.90;;;;;;5055893;28;20029;-61
2022/03/27 03:34:55;;;;;;;11.43;4.20;;;7.60;99.90;;;;;;5058987;28;20470;-61
2022/03/27 03:37:20;;;;;;;10.35;3.83;;;7.70;99.90;;;;;;5055756;28;20041;-61
2022/03/27 03:39:47;;;;;;;9.10;3.72;;;7.70;99.90;;;;;;5061828;28;20130;-61
2022/03/27 03:42:13;;;;;;;9.82;4.28;;;7.80;99.90;;;;;;5061003;28;20039;-61
2022/03/27 03:44:38;;;;;;;13.27;4.57;;;7.90;99.90;;;;;;5060711;28;20029;-61
2022/03/27 03:47:04;;;;;;;10.52;4.55;;;8.00;99.90;;;;;;5064222;28;20414;-61
2022/03/27 03:49:30;;;;;;;8.82;3.38;;;8.10;99.90;;;;;;5060300;28;20037;-61
2022/03/27 03:51:56;;;;;;;14.43;4.97;;;8.10;99.90;;;;;;5037437;28;20375;-61
2022/03/27 03:54:22;;;;;;;16.83;4.78;;;8.10;99.90;;;;;;5053759;28;20029;-61
2022/03/27 03:56:47;;;;;;;12.32;4.25;;;8.20;99.90;;;;;;5059404;28;20078;-62
2022/03/27 03:59:13;;;;;;;11.38;4.68;;;8.10;99.90;;;;;;5060125;28;20039;-61
2022/03/27 04:01:39;;;;;;;9.45;3.95;;;8.20;99.90;;;;;;5041361;28;20108;-61
2022/03/27 04:04:05;;;;;;;11.00;4.20;;;8.10;99.90;;;;;;5057818;28;20025;-61
2022/03/27 04:06:31;;;;;;;13.05;4.68;;;8.00;99.90;;;;;;5056922;28;20028;-62
2022/03/27 04:08:57;;;;;;;11.50;4.38;;;8.00;99.90;;;;;;5058253;28;20047;-61
2022/03/27 04:11:22;;;;;;;10.95;4.30;;;8.00;99.90;;;;;;5054853;28;20036;-61
2022/03/27 04:13:48;;;;;;;10.80;3.92;;;8.10;99.90;;;;;;5057989;28;20020;-61
2022/03/27 04:16:14;;;;;;;14.48;5.35;;;8.30;99.90;;;;;;5053718;28;20383;-61
2022/03/27 04:18:40;;;;;;;12.82;5.35;;;8.40;99.90;;;;;;5060475;28;20075;-61
2022/03/27 04:21:07;;;;;;;10.50;4.05;;;8.30;99.90;;;;;;5056192;28;20468;-61
2022/03/27 04:23:33;;;;;;;15.75;5.05;;;8.40;99.90;;;;;;5038895;28;20177;-61
2022/03/27 04:25:59;;;;;;;13.73;4.90;;;8.40;99.90;;;;;;5057122;28;20029;-61
2022/03/27 04:28:24;;;;;;;10.43;4.18;;;8.20;99.90;;;;;;5057079;28;20028;-61
2022/03/27 04:30:50;;;;;;;15.88;5.43;;;8.40;99.90;;;;;;5054498;28;20071;-61
2022/03/27 04:33:16;;;;;;;12.25;4.75;;;8.40;99.90;;;;;;5059113;28;20029;-61
2022/03/27 04:35:42;;;;;;;17.05;5.00;;;8.40;99.90;;;;;;5052053;28;20478;-61
2022/03/27 04:38:08;;;;;;;16.25;5.05;;;8.50;99.90;;;;;;5062066;28;20067;-61
2022/03/27 04:40:34;;;;;;;12.85;5.75;;;8.60;99.90;;;;;;5053829;28;20056;-61
2022/03/27 04:43:00;;;;;;;14.90;5.90;;;8.30;99.90;;;;;;5058946;28;20848;-61
2022/03/27 04:45:25;;;;;;;17.80;6.85;;;8.30;99.90;;;;;;5060032;28;20056;-61
2022/03/27 04:47:51;;;;;;;17.65;5.68;;;8.30;99.90;;;;;;5057588;28;20047;-61
2022/03/27 04:50:17;;;;;;;17.75;6.78;;;8.30;99.90;;;;;;5060892;28;20074;-61
2022/03/27 04:52:42;;;;;;;16.70;7.00;;;8.20;99.90;;;;;;5047369;28;20472;-61
2022/03/27 04:55:08;;;;;;;30.33;7.68;;;8.10;99.90;;;;;;5058406;28;20102;-61
2022/03/27 04:57:35;;;;;;;19.65;7.90;;;8.10;99.90;;;;;;5057662;28;20024;-61
2022/03/27 05:00:01;;;;;;;22.15;6.90;;;8.10;99.90;;;;;;5054812;28;20126;-61
2022/03/27 05:02:26;;;;;;;20.92;8.57;;;8.10;99.90;;;;;;5057736;28;20090;-61
2022/03/27 05:04:52;;;;;;;20.83;6.72;;;8.20;99.90;;;;;;5054186;28;20039;-61
2022/03/27 05:07:17;;;;;;;20.88;8.27;;;8.20;99.90;;;;;;5060207;28;20041;-61
2022/03/27 05:09:43;;;;;;;32.92;10.23;;;8.20;99.90;;;;;;5056778;28;20117;-61
2022/03/27 05:12:09;;;;;;;26.05;9.13;;;8.10;99.90;;;;;;5054341;28;20029;-59
2022/03/27 05:14:35;;;;;;;18.90;7.93;;;8.10;99.90;;;;;;5055789;28;20025;-60
2022/03/27 05:17:02;;;;;;;24.38;7.18;;;8.10;99.90;;;;;;5050286;28;20037;-61
2022/03/27 05:19:29;;;;;;;26.35;9.43;;;8.10;99.90;;;;;;5063857;28;20096;-61
2022/03/27 05:21:54;;;;;;;24.77;7.15;;;8.20;99.90;;;;;;5060977;28;20023;-61
2022/03/27 05:24:20;;;;;;;22.05;7.88;;;8.40;99.90;;;;;;5055254;28;20032;-61
2022/03/27 05:26:45;;;;;;;19.10;8.13;;;8.30;99.90;;;;;;5043511;28;20679;-61
2022/03/27 05:29:11;;;;;;;28.30;9.38;;;8.20;99.90;;;;;;5062078;28;20201;-60
2022/03/27 05:31:38;;;;;;;25.35;8.45;;;8.20;99.90;;;;;;5054281;28;20039;-59
2022/03/27 05:34:06;;;;;;;25.33;8.65;;;8.10;99.90;;;;;;5053210;28;20098;-59
2022/03/27 05:36:32;;;;;;;17.15;8.18;;;8.10;99.90;;;;;;5054588;28;20098;-59
2022/03/27 05:38:57;;;;;;;18.23;7.78;;;8.10;99.90;;;;;;5052588;28;20496;-59
2022/03/27 05:41:23;;;;;;;20.63;8.20;;;8.10;99.90;;;;;;5055205;28;20797;-60
2022/03/27 05:43:49;;;;;;;18.08;8.75;;;8.00;99.90;;;;;;5033189;28;20025;-61
2022/03/27 05:46:15;;;;;;;17.85;7.10;;;8.00;99.90;;;;;;5037943;28;20035;-59
2022/03/27 05:48:40;;;;;;;22.92;8.40;;;8.00;99.90;;;;;;5049353;28;20114;-61
2022/03/27 05:51:06;;;;;;;24.45;8.95;;;8.00;99.90;;;;;;5052409;28;20035;-59
2022/03/27 05:53:31;;;;;;;20.25;8.60;;;8.00;99.90;;;;;;5054795;28;20036;-59
2022/03/27 05:55:59;;;;;;;14.45;6.93;;;8.20;99.90;;;;;;5054289;28;20546;-61
2022/03/27 05:58:24;;;;;;;25.58;8.05;;;8.10;99.90;;;;;;5038594;28;20487;-61
2022/03/27 06:00:53;;;;;;;18.55;7.20;;;8.30;99.90;;;;;;5057950;28;20016;-60
2022/03/27 06:03:19;;;;;;;25.65;7.63;;;8.20;99.90;;;;;;5060085;28;20018;-61
2022/03/27 06:05:44;;;;;;;26.77;7.40;;;8.30;99.90;;;;;;5052276;28;20365;-59
2022/03/27 06:08:10;;;;;;;19.73;8.20;;;8.20;99.90;;;;;;5042750;28;20393;-61
2022/03/27 06:10:38;;;;;;;30.83;7.28;;;8.20;99.90;;;;;;5054973;28;20056;-59
2022/03/27 06:13:04;;;;;;;17.60;6.95;;;8.10;99.90;;;;;;5059816;28;20016;-61
2022/03/27 06:15:32;;;;;;;30.73;8.95;;;8.20;99.90;;;;;;5053237;28;20027;-62
2022/03/27 06:17:58;;;;;;;22.58;8.43;;;8.20;99.90;;;;;;5055967;28;20017;-61
2022/03/27 06:20:29;;;;;;;26.90;7.32;;;8.20;99.90;;;;;;5058607;28;20108;-61
2022/03/27 06:22:56;;;;;;;21.90;7.68;;;8.10;99.90;;;;;;5051037;28;20025;-61
2022/03/27 06:25:25;;;;;;;20.17;8.68;;;8.10;99.90;;;;;;5053927;28;20025;-61
2022/03/27 06:27:51;;;;;;;20.27;7.68;;;8.10;99.90;;;;;;5055465;28;20048;-61
2022/03/27 06:30:20;;;;;;;14.75;6.53;;;8.10;99.90;;;;;;5059861;28;20496;-61
2022/03/27 06:32:46;;;;;;;16.38;7.15;;;8.30;99.90;;;;;;5039977;28;20032;-62
2022/03/27 06:35:13;;;;;;;24.50;8.73;;;8.20;99.90;;;;;;5042590;28;20028;-62
2022/03/27 06:37:40;;;;;;;32.15;8.07;;;8.30;99.90;;;;;;5054139;28;20043;-61
2022/03/27 06:40:08;;;;;;;20.15;6.15;;;8.20;99.90;;;;;;5054133;28;20013;-61
2022/03/27 06:42:33;;;;;;;16.70;6.28;;;8.20;99.90;;;;;;5060500;28;20030;-62
2022/03/27 06:44:59;;;;;;;26.70;7.90;;;8.30;99.90;;;;;;5055140;28;20079;-61
2022/03/27 06:47:26;;;;;;;19.05;7.07;;;8.40;99.90;;;;;;5059201;28;20074;-61
2022/03/27 06:49:53;;;;;;;17.70;6.82;;;8.50;99.90;;;;;;5050552;28;20488;-61
2022/03/27 06:52:20;;;;;;;19.45;6.07;;;8.30;99.90;;;;;;5055021;28;20029;-61
2022/03/27 06:54:46;;;;;;;23.13;7.60;;;8.50;99.90;;;;;;5050793;28;20136;-61
2022/03/27 06:57:12;;;;;;;18.50;7.63;;;8.30;99.90;;;;;;5052595;28;20037;-61
2022/03/27 07:05:09;;;;;;;18.80;6.32;;;8.40;99.90;;;;;;5053683;28;20790;-61
2022/03/27 07:07:35;;;;;;;17.45;5.82;;;8.50;99.90;;;;;;5053706;28;20033;-61
2022/03/27 07:10:01;;;;;;;24.48;7.15;;;8.40;99.90;;;;;;5056308;28;20029;-60
2022/03/27 07:12:26;;;;;;;21.33;6.03;;;8.40;99.90;;;;;;5057535;28;20534;-61
2022/03/27 07:14:52;;;;;;;19.23;7.32;;;8.60;99.90;;;;;;5057112;28;20033;-61
2022/03/27 07:17:18;;;;;;;15.77;7.13;;;8.60;99.90;;;;;;5056145;28;20045;-61
2022/03/27 07:19:47;;;;;;;18.50;6.53;;;8.70;99.90;;;;;;5061478;28;20035;-61
2022/03/27 07:22:14;;;;;;;16.05;6.05;;;8.80;99.90;;;;;;5045582;28;20020;-62
2022/03/27 07:24:40;;;;;;;18.63;7.05;;;8.60;99.90;;;;;;5059026;28;20074;-61
2022/03/27 07:27:06;;;;;;;15.48;5.80;;;8.60;99.90;;;;;;5042856;28;20028;-61
2022/03/27 07:29:32;;;;;;;18.25;6.63;;;8.80;99.90;;;;;;5055590;28;20028;-61
2022/03/27 07:31:58;;;;;;;17.98;6.97;;;8.60;99.90;;;;;;5055343;28;20469;-61
2022/03/27 07:34:24;;;;;;;21.70;6.95;;;8.80;99.90;;;;;;5055099;28;20044;-61
2022/03/27 07:36:49;;;;;;;24.58;6.60;;;9.10;99.90;;;;;;5055862;28;20039;-61
2022/03/27 07:39:15;;;;;;;13.75;5.50;;;9.00;99.90;;;;;;5057055;28;20133;-62
2022/03/27 07:41:41;;;;;;;12.15;4.95;;;9.20;99.90;;;;;;5057225;28;20036;-61
2022/03/27 07:44:06;;;;;;;18.60;5.93;;;9.60;99.90;;;;;;5054814;28;20403;-61
2022/03/27 07:46:32;;;;;;;14.13;5.95;;;10.10;99.90;;;;;;5044963;28;20039;-62
2022/03/27 07:48:58;;;;;;;15.27;5.40;;;10.30;99.90;;;;;;5051501;28;20715;-62
2022/03/27 07:51:23;;;;;;;18.77;6.88;;;10.20;99.90;;;;;;5058256;28;20116;-61
2022/03/27 07:53:49;;;;;;;17.73;5.78;;;10.40;99.90;;;;;;5056857;28;20029;-62
2022/03/27 07:56:14;;;;;;;21.73;6.70;;;10.60;99.90;;;;;;5052906;28;20037;-61
2022/03/27 07:58:40;;;;;;;20.48;6.45;;;9.80;99.90;;;;;;5054787;28;20025;-61
2022/03/27 08:01:06;;;;;;;13.57;5.60;;;9.70;99.90;;;;;;5060478;28;20027;-61
2022/03/27 08:03:33;;;;;;;17.02;5.97;;;10.20;99.90;;;;;;5060317;28;20033;-61
2022/03/27 08:06:00;;;;;;;16.52;5.20;;;10.10;99.90;;;;;;5060558;28;20563;-61
2022/03/27 08:08:26;;;;;;;17.63;6.43;;;10.90;99.90;;;;;;5065049;28;20120;-61
2022/03/27 08:10:52;;;;;;;17.10;5.13;;;11.00;99.90;;;;;;5059909;28;20548;-61
2022/03/27 08:13:17;;;;;;;19.13;6.13;;;11.00;99.90;;;;;;5044142;28;20062;-61
2022/03/27 08:15:43;;;;;;;14.65;5.25;;;10.70;99.90;;;;;;5017999;28;20041;-61
2022/03/27 08:18:13;;;;;;;17.05;5.82;;;10.30;99.90;;;;;;5021170;28;20443;-61
2022/03/27 08:20:40;;;;;;;18.15;5.63;;;10.00;99.90;;;;;;5023429;28;20033;-61
2022/03/27 08:23:07;;;;;;;16.77;6.25;;;9.90;99.90;;;;;;5003610;28;20869;-61
2022/03/27 08:28:19;;;;;;;16.10;5.97;;;10.10;99.90;;;;;;5018672;28;20119;-62
2022/03/27 08:30:46;;;;;;;17.25;5.47;;;10.20;99.90;;;;;;5019958;28;20632;-61
2022/03/27 08:33:13;;;;;;;20.08;7.07;;;10.30;99.90;;;;;;5017808;28;20042;-61
2022/03/27 08:35:41;;;;;;;17.67;6.57;;;10.50;99.90;;;;;;5022502;28;20033;-61
2022/03/27 08:38:13;;;;;;;19.30;6.07;;;10.80;99.90;;;;;;5026483;28;20048;-61
2022/03/27 08:40:40;;;;;;;19.50;6.20;;;10.50;99.90;;;;;;5032374;28;20048;-61
2022/03/27 08:43:10;;;;;;;19.98;6.65;;;10.60;99.90;;;;;;5039225;28;20112;-61
2022/03/27 08:45:35;;;;;;;13.50;5.38;;;10.50;99.90;;;;;;5036604;28;20037;-61
2022/03/27 08:48:01;;;;;;;17.70;5.70;;;11.00;99.90;;;;;;5034668;28;20048;-61
2022/03/27 08:50:31;;;;;;;21.83;6.57;;;12.10;99.90;;;;;;5030421;28;20505;-61
2022/03/27 08:53:05;;;;;;;20.40;6.13;;;11.40;99.90;;;;;;5042666;28;20032;-61
2022/03/27 08:55:46;;;;;;;17.73;5.68;;;10.90;99.90;;;;;;5061392;28;20024;-61
2022/03/27 08:58:12;;;;;;;17.05;6.75;;;11.00;99.90;;;;;;5076473;28;20056;-62
2022/03/27 09:00:40;;;;;;;20.65;5.97;;;10.90;99.90;;;;;;5076827;28;20016;-61
2022/03/27 09:03:07;;;;;;;19.25;6.32;;;11.00;99.90;;;;;;5075833;28;20051;-61
2022/03/27 09:05:40;;;;;;;17.08;6.13;;;10.80;99.90;;;;;;5074204;28;20100;-61
2022/03/27 09:08:09;;;;;;;17.00;5.97;;;11.00;99.90;;;;;;5071169;28;20044;-62
2022/03/27 09:10:35;;;;;;;25.15;7.90;;;11.70;99.90;;;;;;5071082;28;20027;-61
2022/03/27 09:13:02;;;;;;;20.88;6.75;;;11.00;99.90;;;;;;5077668;28;20032;-61
2022/03/27 09:15:28;;;;;;;18.67;6.47;;;10.90;99.90;;;;;;5072371;28;20029;-61
2022/03/27 09:17:59;;;;;;;21.25;6.95;;;10.90;99.90;;;;;;5074870;28;20047;-62
2022/03/27 09:20:37;;;;;;;18.48;5.72;;;11.60;99.90;;;;;;5055943;28;20060;-61
2022/03/27 09:23:26;;;;;;;16.20;6.15;;;11.80;99.90;;;;;;5080216;28;20077;-61
2022/03/27 09:25:59;;;;;;;20.15;7.47;;;11.20;99.90;;;;;;5059754;28;20082;-62
2022/03/27 09:28:36;;;;;;;15.80;5.47;;;11.20;99.90;;;;;;5083902;28;20572;-61
2022/03/27 09:31:20;;;;;;;20.40;6.22;;;11.90;99.90;;;;;;5076483;28;20067;-61
2022/03/27 09:33:47;;;;;;;16.90;5.18;;;11.80;99.90;;;;;;5072861;28;20032;-61
2022/03/27 09:36:41;;;;;;;16.55;6.13;;;11.50;99.90;;;;;;5075875;28;20444;-61
2022/03/27 09:39:13;;;;;;;18.75;6.43;;;12.30;99.90;;;;;;5055779;28;20040;-62
2022/03/27 09:41:54;;;;;;;18.90;5.88;;;13.20;99.90;;;;;;5057157;28;20571;-61
2022/03/27 09:44:29;;;;;;;15.90;5.18;;;13.90;99.90;;;;;;5053401;28;20029;-62
2022/03/27 09:47:10;;;;;;;18.60;5.78;;;14.20;99.90;;;;;;5055294;28;20082;-61
2022/03/27 09:49:37;;;;;;;17.42;6.00;;;13.60;99.90;;;;;;5056991;28;20032;-61
2022/03/27 09:52:10;;;;;;;16.63;5.95;;;13.70;99.90;;;;;;5056908;28;20040;-61
2022/03/27 09:54:56;;;;;;;17.58;5.53;;;13.50;99.90;;;;;;5058339;28;20122;-61
2022/03/27 09:57:34;;;;;;;17.08;5.78;;;12.40;99.90;;;;;;5056679;28;20617;-61
2022/03/27 10:00:13;;;;;;;19.40;5.53;;;12.80;99.90;;;;;;5053095;28;20021;-61
2022/03/27 10:02:39;;;;;;;17.60;5.55;;;12.70;99.90;;;;;;5059368;28;20070;-61
2022/03/27 10:05:06;;;;;;;17.25;5.22;;;12.70;99.90;;;;;;5059338;28;20115;-61
2022/03/27 10:07:34;;;;;;;21.00;6.63;;;13.00;99.90;;;;;;5059218;28;20450;-61
2022/03/27 10:09:59;;;;;;;16.50;5.85;;;12.90;99.90;;;;;;5039057;28;20039;-61
2022/03/27 10:12:28;;;;;;;18.08;6.55;;;13.90;99.90;;;;;;5057936;28;20028;-61
2022/03/27 10:14:59;;;;;;;17.52;5.80;;;13.40;99.90;;;;;;5045650;28;20043;-61
2022/03/27 10:17:27;;;;;;;17.48;5.28;;;13.60;99.90;;;;;;5046558;28;20076;-61
2022/03/27 10:19:57;;;;;;;16.63;6.13;;;14.40;99.90;;;;;;5057825;28;20148;-61
2022/03/27 10:22:27;;;;;;;21.50;6.78;;;13.40;99.90;;;;;;5048610;28;20086;-61
2022/03/27 10:24:56;;;;;;;15.88;5.80;;;13.90;99.90;;;;;;5050324;28;20668;-61
2022/03/27 10:27:22;;;;;;;14.88;5.05;;;13.90;99.90;;;;;;5054073;28;20028;-61
2022/03/27 10:29:48;;;;;;;19.00;5.75;;;13.10;99.90;;;;;;5050246;28;20021;-61
2022/03/27 10:32:15;;;;;;;17.95;5.72;;;12.60;99.90;;;;;;5047706;28;20029;-61
2022/03/27 10:34:53;;;;;;;15.00;5.30;;;12.40;99.90;;;;;;5052190;28;20047;-61
2022/03/27 10:37:41;;;;;;;15.13;5.85;;;13.50;99.90;;;;;;5052088;28;20420;-62
2022/03/27 10:40:21;;;;;;;16.85;4.70;;;14.70;99.90;;;;;;5057318;28;20034;-61
2022/03/27 10:43:02;;;;;;;15.15;5.28;;;15.00;99.90;;;;;;5065947;28;20036;-65
2022/03/27 10:45:27;;;;;;;13.68;5.40;;;15.40;99.90;;;;;;5060946;28;20158;-65
2022/03/27 10:48:13;;;;;;;14.45;4.70;;;15.00;99.90;;;;;;5060516;28;20108;-65
2022/03/27 10:50:51;;;;;;;16.92;5.05;;;16.20;99.90;;;;;;5058882;28;20112;-65
2022/03/27 10:53:19;;;;;;;11.40;4.07;;;15.10;99.90;;;;;;5044479;28;20049;-65
2022/03/27 10:55:47;;;;;;;14.00;3.95;;;15.50;99.90;;;;;;5054153;28;20035;-65
2022/03/27 10:58:39;;;;;;;12.52;4.25;;;15.30;99.90;;;;;;5061561;28;20036;-65
2022/03/27 11:01:29;;;;;;;25.38;5.28;;;14.10;99.90;;;;;;5063074;28;20104;-67
2022/03/27 11:04:07;;;;;;;13.13;4.47;;;15.40;99.90;;;;;;5044522;28;20111;-61
2022/03/27 11:06:35;;;;;;;15.80;5.32;;;15.60;99.90;;;;;;5056806;28;20024;-61
2022/03/27 11:09:07;;;;;;;14.43;5.20;;;13.60;99.90;;;;;;5055577;28;20037;-61
2022/03/27 11:11:36;;;;;;;12.88;4.88;;;14.00;99.90;;;;;;5056071;28;20067;-61
2022/03/27 11:14:06;;;;;;;16.80;5.53;;;13.80;99.90;;;;;;5054260;28;20733;-61
2022/03/27 11:16:36;;;;;;;17.35;4.40;;;14.10;99.90;;;;;;5056553;28;20032;-61
2022/03/27 11:19:03;;;;;;;13.57;4.88;;;16.70;99.90;;;;;;5058016;28;20106;-61
2022/03/27 11:21:29;;;;;;;16.27;4.47;;;16.40;99.90;;;;;;5038500;28;20029;-61
2022/03/27 11:24:03;;;;;;;13.70;4.68;;;16.20;99.90;;;;;;5059004;28;20031;-61
2022/03/27 11:26:31;;;;;;;13.10;4.03;;;16.10;99.90;;;;;;5058846;28;20094;-61
2022/03/27 11:29:04;;;;;;;12.18;3.88;;;16.40;99.90;;;;;;5053089;28;20099;-61
2022/03/27 11:31:34;;;;;;;11.35;3.95;;;17.40;99.90;;;;;;5051949;28;20041;-61
2022/03/27 11:34:05;;;;;;;11.57;3.92;;;19.40;99.90;;;;;;5057974;28;20028;-61
2022/03/27 11:36:32;;;;;;;11.80;4.43;;;20.00;98.10;;;;;;5063101;28;20518;-62
2022/03/27 11:39:11;;;;;;;13.88;4.72;;;19.30;97.60;;;;;;5056881;28;20045;-62
2022/03/27 11:41:43;;;;;;;11.98;4.07;;;19.60;97.00;;;;;;5054698;28;20508;-61
2022/03/27 11:44:19;;;;;;;13.20;4.80;;;19.50;98.60;;;;;;5057940;28;20020;-61
2022/03/27 11:46:52;;;;;;;13.77;4.72;;;19.30;97.20;;;;;;5057922;28;20029;-61
2022/03/27 11:49:18;;;;;;;12.85;4.20;;;18.60;98.90;;;;;;5058717;28;20016;-61
2022/03/27 11:51:44;;;;;;;14.02;5.20;;;20.20;96.90;;;;;;5059621;28;20036;-61
2022/03/27 11:54:18;;;;;;;12.23;4.70;;;19.20;96.50;;;;;;5058686;28;20029;-61
2022/03/27 11:56:54;;;;;;;12.85;3.88;;;20.90;96.00;;;;;;5057713;28;20108;-61
2022/03/27 11:59:19;;;;;;;13.13;4.55;;;19.80;96.80;;;;;;5062855;28;20020;-61
2022/03/27 12:02:12;;;;;;;15.50;5.20;;;20.00;96.00;;;;;;5056476;28;20071;-61
2022/03/27 12:05:01;;;;;;;10.93;3.63;;;19.60;96.60;;;;;;5049445;28;20062;-61
2022/03/27 12:07:56;;;;;;;13.40;5.63;;;22.40;93.20;;;;;;5062550;28;20042;-61
2022/03/27 12:10:23;;;;;;;14.60;5.00;;;19.00;95.00;;;;;;5048453;28;20278;-61
2022/03/27 12:13:04;;;;;;;13.55;4.90;;;19.60;94.60;;;;;;5061738;28;20047;-61
2022/03/27 12:15:36;;;;;;;15.70;4.97;;;20.10;95.00;;;;;;5056089;28;20104;-61
2022/03/27 12:18:03;;;;;;;15.50;4.93;;;22.40;92.30;;;;;;5058945;28;20025;-61
2022/03/27 12:20:29;;;;;;;11.50;4.65;;;22.00;91.20;;;;;;5040195;28;20400;-61
2022/03/27 12:22:56;;;;;;;10.25;4.00;;;22.50;90.30;;;;;;5057896;28;20017;-62
2022/03/27 12:25:25;;;;;;;15.80;5.25;;;20.80;91.80;;;;;;5054885;28;20122;-61
2022/03/27 12:30:47;;;;;;;11.38;4.00;;;22.50;91.30;;;;;;5055977;28;20124;-61
2022/03/27 12:33:13;;;;;;;12.63;4.47;;;25.40;83.90;;;;;;5051834;28;20048;-62
2022/03/27 12:35:39;;;;;;;11.27;4.47;;;25.90;80.60;;;;;;5052981;28;20028;-62
2022/03/27 12:38:05;;;;;;;11.45;3.85;;;23.80;81.70;;;;;;5048679;28;20055;-62
2022/03/27 12:40:44;;;;;;;12.35;4.57;;;24.00;81.50;;;;;;5051271;28;20021;-62
2022/03/27 12:43:15;;;;;;;14.30;5.07;;;23.50;80.80;;;;;;5044742;28;20107;-62
2022/03/27 12:45:42;;;;;;;11.15;4.03;;;21.40;86.70;;;;;;5053735;28;20020;-62
2022/03/27 12:48:23;;;;;;;11.50;3.85;;;22.10;86.70;;;;;;5034372;28;20491;-62
2022/03/27 12:50:51;;;;;;;13.40;4.82;;;24.00;82.60;;;;;;5038543;28;20082;-62
2022/03/27 12:53:23;;;;;;;11.20;3.83;;;25.40;78.20;;;;;;5049351;28;20035;-62
2022/03/27 12:55:48;;;;;;;11.25;4.00;;;25.80;77.80;;;;;;5050393;28;20052;-61
2022/03/27 12:58:16;;;;;;;11.18;3.97;;;27.10;74.10;;;;;;5054895;28;20951;-62
2022/03/27 13:00:43;;;;;;;13.70;6.50;;;22.70;80.30;;;;;;5054975;28;20031;-62
2022/03/27 13:03:16;;;;;;;15.55;6.68;;;22.30;81.60;;;;;;5041375;28;20486;-62